Flight Track Log - Related Links

Times and Time Zones

All times are in EDT time to prevent confusion due to time zone crossing. See the N3746H flight status page for this flight to view local times or setup timezone preferences in your user account.

Time Position Orientation Groundspeed Altitude Reporting Facility
EDT Latitude Longitude Course Direction KTS MPH feet Rate Location/Type
Thu 02:23:02 AM 36.1108 -115.1489 83° East 163 188 3,300  Level Los Angeles Center
Thu 02:23:27 AM 36.1261 -115.1303 45° Northeast 184 212 4,200 1,833 Climbing Los Angeles Center
Thu 02:24:14 AM 36.1333 -115.0750 81° East 243 280 5,500 2,667 Climbing Los Angeles Center
Thu 02:24:39 AM 36.1389 -115.0303 81° East 262 302 7,400 3,148 Climbing Los Angeles Center
Thu 02:25:15 AM 36.1431 -114.9842 84° East 264 304 8,700 3,049 Climbing Los Angeles Center
Thu 02:25:40 AM 36.1481 -114.9339 83° East 286 329 10,500 1,973 Climbing Los Angeles Center
Thu 02:26:00 AM 35.8280 -114.9428 84° East  Level FlightAware Approximate
Thu 02:26:28 AM 36.1411 -114.8817 99° East 301 346 11,100  Level Los Angeles Center
Thu 02:26:47 AM 36.1181 -114.8161 114° Southeast 348 400 12,800 3,344 Climbing Los Angeles Center
Thu 02:27:00 AM 35.8424 -114.7762 83° East  Level FlightAware Approximate
Thu 02:27:29 AM 36.0928 -114.7464 114° Southeast 357 411 14,500  Level Los Angeles Center
Thu 02:28:00 AM 35.8590 -114.6098 83° East  Level FlightAware Approximate
Thu 02:28:30 AM 36.0533 -114.6253 112° Southeast 375 432 16,800  Level Los Angeles Center
Thu 02:29:31 AM 36.0108 -114.4950 112° Southeast 403 464 18,500 1,918 Climbing Los Angeles Center
Thu 02:30:32 AM 35.9883 -114.3514 101° East 422 486 20,700 2,066 Climbing Los Angeles Center
Thu 02:31:33 AM 35.9669 -114.2025 100° East 437 503 22,700 1,983 Climbing Los Angeles Center
Thu 02:32:33 AM 35.9397 -114.0172 100° East 456 525 24,700 1,785 Climbing Los Angeles Center
Thu 02:33:34 AM 35.9161 -113.8581 100° East 468 539 26,300 1,328 Climbing Los Angeles Center
Thu 02:34:35 AM 35.8897 -113.6931 101° East 485 558 27,400 1,279 Climbing Los Angeles Center
Thu 02:35:36 AM 35.8667 -113.5397 100° East 502 578 28,900 1,279 Climbing Los Angeles Center
Thu 02:36:37 AM 35.8383 -113.3678 101° East 509 586 30,000 1,140 Climbing Los Angeles Center
Thu 02:37:37 AM 35.8111 -113.1939 101° East 515 593 31,200 1,190 Climbing Los Angeles Center
Thu 02:38:38 AM 35.7828 -113.0172 101° East 521 600 32,400 1,131 Climbing Los Angeles Center
Thu 02:39:39 AM 35.7897 -112.8400 87° East 517 595 33,500 1,082 Climbing Los Angeles Center
Thu 02:40:40 AM 35.8122 -112.6650 81° East 516 594 34,600 1,339 Climbing Los Angeles Center
Thu 02:41:40 AM 35.8319 -112.4942 82° East 505 581 36,200 893 Climbing Los Angeles Center
Thu 02:42:41 AM 35.8911 -112.3406 65° Northeast 496 571 36,400 344 Climbing Los Angeles Center
Thu 02:43:42 AM 35.9644 -112.1914 59° Northeast 505 581 36,900 298 Climbing Los Angeles Center
Thu 02:44:42 AM 36.0367 -112.0428 59° Northeast 507 583 37,000 50 Climbing Los Angeles Center
Thu 02:45:43 AM 36.1150 -111.8836 59° Northeast 504 580 37,000  Level Los Angeles Center
Thu 02:46:43 AM 36.1867 -111.7325 60° Northeast 510 587 37,000  Level Los Angeles Center
Thu 02:47:44 AM 36.2583 -111.5786 60° Northeast 518 596 37,000  Level Los Angeles Center
Thu 02:48:45 AM 36.3325 -111.4256 59° Northeast 519 597 37,000  Level Los Angeles Center
Thu 02:49:45 AM 36.4203 -111.2422 59° Northeast 518 596 37,000  Level Los Angeles Center
Thu 02:50:46 AM 36.4936 -111.0892 59° Northeast 518 596 37,000  Level Los Angeles Center
Thu 02:51:46 AM 36.5661 -110.9367 59° Northeast 515 593 37,000  Level Los Angeles Center
Thu 02:52:49 AM 36.6397 -110.7839 59° Northeast 516 594 37,000  Level Denver Center
Thu 02:53:49 AM 36.7069 -110.6347 61° Northeast 504 580 37,000  Level Denver Center
Thu 02:54:50 AM 36.7806 -110.4806 59° Northeast 516 594 37,000  Level Denver Center
Thu 02:55:50 AM 36.8506 -110.3275 60° Northeast 513 590 37,000  Level Denver Center
Thu 02:56:51 AM 36.9231 -110.1717 60° Northeast 520 598 37,000  Level Denver Center
Thu 02:57:52 AM 36.9997 -110.0031 60° Northeast 511 588 37,000  Level Denver Center
Thu 02:58:52 AM 37.0678 -109.8558 60° Northeast 510 587 37,000  Level Denver Center
Thu 02:59:54 AM 37.1347 -109.7056 61° Northeast 513 590 37,000  Level Denver Center
Thu 03:00:54 AM 37.2125 -109.5367 60° Northeast 503 579 37,000  Level Denver Center
Thu 03:01:55 AM 37.2786 -109.3883 61° Northeast 505 581 37,000  Level Denver Center
Thu 03:02:55 AM 37.3444 -109.2414 61° Northeast 504 580 37,000  Level Denver Center
Thu 03:03:56 AM 37.4222 -109.0694 60° Northeast 505 581 37,000  Level Denver Center
Thu 03:04:56 AM 37.4881 -108.9206 61° Northeast 506 582 37,000  Level Denver Center
Thu 03:05:57 AM 37.5536 -108.7703 61° Northeast 509 586 37,000  Level Denver Center
Thu 03:06:57 AM 37.6186 -108.6200 61° Northeast 509 586 37,000  Level Denver Center
Thu 03:07:58 AM 37.6944 -108.4481 61° Northeast 502 578 37,000  Level Denver Center
Thu 03:08:58 AM 37.7600 -108.2994 61° Northeast 504 580 37,000  Level Denver Center
Thu 03:09:59 AM 37.8264 -108.1503 61° Northeast 507 583 37,000  Level Denver Center
Thu 03:10:59 AM 37.9014 -107.9714 62° Northeast 512 589 37,000  Level Denver Center
Thu 03:12:00 AM 37.9678 -107.8200 61° Northeast 514 592 37,000  Level Denver Center
Thu 03:13:00 AM 38.0328 -107.6656 62° Northeast 518 596 37,000  Level Denver Center
Thu 03:14:01 AM 38.1019 -107.5022 62° Northeast 515 593 37,000  Level Denver Center
Thu 03:15:01 AM 38.1661 -107.3511 62° Northeast 510 587 37,000  Level Denver Center
Thu 03:16:02 AM 38.2408 -107.1772 61° Northeast 505 581 37,000  Level Denver Center
Thu 03:17:02 AM 38.3011 -107.0331 62° Northeast 506 582 37,000  Level Denver Center
Thu 03:18:03 AM 38.3669 -106.8756 62° Northeast 505 581 37,000  Level Denver Center
Thu 03:19:03 AM 38.4317 -106.7169 62° Northeast 505 581 37,000  Level Denver Center
Thu 03:20:03 AM 38.4975 -106.5586 62° Northeast 507 583 37,000  Level Denver Center
Thu 03:21:04 AM 38.5611 -106.4017 63° Northeast 501 577 37,000  Level Denver Center
Thu 03:22:04 AM 38.6269 -106.2431 62° Northeast 504 580 37,000  Level Denver Center
Thu 03:23:05 AM 38.6944 -106.0769 62° Northeast 502 578 37,000  Level Denver Center
Thu 03:24:05 AM 38.7572 -105.9172 63° Northeast 498 573 37,000  Level Denver Center
Thu 03:25:06 AM 38.8219 -105.7572 63° Northeast 501 577 37,000  Level Denver Center
Thu 03:26:06 AM 38.8867 -105.5961 63° Northeast 503 579 37,000  Level Denver Center
Thu 03:27:06 AM 38.9503 -105.4358 63° Northeast 502 578 37,000  Level Denver Center
Thu 03:28:07 AM 39.0153 -105.2728 63° Northeast 508 585 37,000  Level Denver Center
Thu 03:29:07 AM 39.0797 -105.1081 63° Northeast 511 588 37,000  Level Denver Center
Thu 03:30:08 AM 39.1461 -104.9417 63° Northeast 518 596 37,000  Level Denver Center
Thu 03:31:08 AM 39.2106 -104.7756 63° Northeast 517 595 37,000  Level Denver Center
Thu 03:32:09 AM 39.2744 -104.6094 64° Northeast 518 596 37,000  Level Denver Center
Thu 03:33:09 AM 39.3386 -104.4439 63° Northeast 517 595 37,000  Level Denver Center
Thu 03:34:10 AM 39.4025 -104.2772 64° Northeast 518 596 37,000  Level Denver Center
Thu 03:35:10 AM 39.4656 -104.1086 64° Northeast 519 597 37,000  Level Denver Center
Thu 03:36:11 AM 39.5300 -103.9411 63° Northeast 518 596 37,000  Level Denver Center
Thu 03:37:11 AM 39.5931 -103.7700 64° Northeast 520 598 37,000  Level Denver Center
Thu 03:38:11 AM 39.6569 -103.6022 64° Northeast 515 593 37,000  Level Denver Center
Thu 03:39:12 AM 39.7197 -103.4308 64° Northeast 521 600 37,000  Level Denver Center
Thu 03:40:12 AM 39.7844 -103.2597 64° Northeast 524 603 37,000  Level Denver Center
Thu 03:41:13 AM 39.8475 -103.0894 64° Northeast 520 598 37,000  Level Denver Center
Thu 03:42:13 AM 39.9094 -102.9183 65° Northeast 519 597 37,000  Level Denver Center
Thu 03:43:14 AM 39.9719 -102.7486 64° Northeast 516 594 37,000  Level Denver Center
Thu 03:44:14 AM 40.0375 -102.5614 65° Northeast 513 590 37,000  Level Denver Center
Thu 03:45:14 AM 40.0975 -102.3994 64° Northeast 517 595 37,000  Level Denver Center
Thu 03:46:15 AM 40.1550 -102.2369 65° Northeast 516 594 37,000  Level Denver Center
Thu 03:47:15 AM 40.2128 -102.0736 65° Northeast 517 595 37,000  Level Denver Center
Thu 03:48:16 AM 40.2803 -101.8811 65° Northeast 521 600 37,000  Level Denver Center
Thu 03:49:16 AM 40.3389 -101.7178 65° Northeast 519 597 37,000  Level Denver Center
Thu 03:50:17 AM 40.3953 -101.5519 66° East 520 598 37,000  Level Denver Center
Thu 03:51:17 AM 40.4625 -101.3594 65° Northeast 521 600 37,000  Level Denver Center
Thu 03:52:17 AM 40.5194 -101.1942 66° East 519 597 37,000  Level Denver Center
Thu 03:53:18 AM 40.5764 -101.0297 65° Northeast 519 597 37,000  Level Denver Center
Thu 03:54:18 AM 40.6414 -100.8378 66° East 520 598 37,000  Level Denver Center
Thu 03:55:19 AM 40.6967 -100.6750 66° East 518 596 37,000  Level Denver Center
Thu 03:56:19 AM 40.7519 -100.5131 66° East 517 595 37,000  Level Denver Center
Thu 03:57:19 AM 40.8156 -100.3214 66° East 514 592 37,000  Level Denver Center
Thu 03:58:20 AM 40.8706 -100.1564 66° East 514 592 37,000  Level Denver Center
Thu 03:59:20 AM 40.9244 -99.9933 66° East 510 587 37,000  Level Denver Center
Thu 04:00:21 AM 40.9850 -99.8103 66° East 511 588 37,000  Level Denver Center
Thu 04:01:21 AM 41.0408 -99.6369 67° East 510 587 37,000  Level Denver Center
Thu 04:02:22 AM 41.0947 -99.4700 67° East 511 588 37,000  Level Denver Center
Thu 04:03:22 AM 41.1531 -99.2906 67° East 508 585 37,000  Level Denver Center
Thu 04:04:22 AM 41.2086 -99.1153 67° East 510 587 37,000  Level Denver Center
Thu 04:05:23 AM 41.2625 -98.9458 67° East 511 588 37,000  Level Denver Center
Thu 04:06:23 AM 41.3206 -98.7589 67° East 510 587 37,000 446 Level Denver Center
Thu 04:07:24 AM 41.3769 -98.5811 67° East 512 589 37,900 942 Climbing Denver Center
Thu 04:08:24 AM 41.4308 -98.4067 68° East 508 585 38,900 528 Climbing Denver Center
Thu 04:09:29 AM 41.4847 -98.2336 67° East 505 581 39,000 48 Climbing Minneapolis Center
Thu 04:10:29 AM 41.5419 -98.0508 67° East 505 581 39,000  Level Minneapolis Center
Thu 04:11:29 AM 41.5942 -97.8786 68° East 503 579 39,000  Level Minneapolis Center
Thu 04:12:30 AM 41.6469 -97.7047 68° East 503 579 39,000  Level Minneapolis Center
Thu 04:13:30 AM 41.6994 -97.5325 68° East 502 578 39,000  Level Minneapolis Center
Thu 04:14:30 AM 41.7511 -97.3567 68° East 504 580 39,000  Level Minneapolis Center
Thu 04:15:31 AM 41.8033 -97.1814 68° East 506 582 39,000  Level Minneapolis Center
Thu 04:16:31 AM 41.8564 -97.0047 68° East 508 585 39,000  Level Minneapolis Center
Thu 04:17:33 AM 41.9083 -96.8264 69° East 511 588 39,000  Level Minneapolis Center
Thu 04:18:34 AM 41.9594 -96.6478 69° East 511 588 39,000  Level Minneapolis Center
Thu 04:19:34 AM 42.0111 -96.4714 68° East 507 583 39,000  Level Minneapolis Center
Thu 04:20:34 AM 42.0603 -96.2983 69° East 497 572 39,000  Level Minneapolis Center
Thu 04:21:35 AM 42.1097 -96.1242 69° East 497 572 39,000  Level Minneapolis Center
Thu 04:22:35 AM 42.1594 -95.9478 69° East 500 575 39,000  Level Minneapolis Center
Thu 04:23:36 AM 42.2097 -95.7719 69° East 502 578 39,000  Level Minneapolis Center
Thu 04:24:36 AM 42.2592 -95.5950 69° East 501 577 39,000  Level Minneapolis Center
Thu 04:25:36 AM 42.3081 -95.4189 69° East 500 575 39,000  Level Minneapolis Center
Thu 04:26:37 AM 42.3564 -95.2417 70° East 501 577 39,000  Level Minneapolis Center
Thu 04:27:37 AM 42.4031 -95.0675 70° East 496 571 39,000  Level Minneapolis Center
Thu 04:28:37 AM 42.4503 -94.8942 70° East 491 565 39,000  Level Minneapolis Center
Thu 04:29:38 AM 42.4969 -94.7219 70° East 488 562 39,000  Level Minneapolis Center
Thu 04:30:38 AM 42.5411 -94.5567 70° East 489 563 39,000  Level Minneapolis Center
Thu 04:31:39 AM 42.5856 -94.3831 71° East 490 564 39,000  Level Minneapolis Center
Thu 04:32:39 AM 42.6203 -94.2106 75° East 477 549 39,000  Level Minneapolis Center
Thu 04:33:39 AM 42.6389 -94.0369 82° East 469 540 39,000  Level Minneapolis Center
Thu 04:34:04 AM 42.6461 -93.9675 82° East 468 539 39,000  Level Minneapolis Center
Thu 04:35:04 AM 42.6650 -93.7936 82° East 468 539 39,000  Level Minneapolis Center
Thu 04:36:04 AM 42.6839 -93.6175 82° East 474 545 39,000  Level Minneapolis Center
Thu 04:37:05 AM 42.7053 -93.4053 82° East 477 549 39,000  Level Minneapolis Center
Thu 04:38:05 AM 42.7239 -93.2294 82° East 474 545 39,000  Level Minneapolis Center
Thu 04:40:27 AM 42.7614 -92.8447 82° East 470 541 39,000  Level Chicago Center
Thu 04:40:42 AM 42.7692 -92.7756 81° East 470 541 39,000  Level Minneapolis Center
Thu 04:41:43 AM 42.7864 -92.6000 82° East 471 542 39,000  Level Minneapolis Center
Thu 04:42:43 AM 42.8031 -92.4233 83° East 474 545 39,000  Level Minneapolis Center
Thu 04:43:44 AM 42.8192 -92.2458 83° East 475 547 39,000  Level Minneapolis Center
Thu 04:44:44 AM 42.8358 -92.0683 83° East 475 547 39,000  Level Minneapolis Center
Thu 04:45:44 AM 42.8522 -91.8903 83° East 475 547 39,000  Level Minneapolis Center
Thu 04:46:45 AM 42.8686 -91.7069 83° East 479 551 39,000  Level Minneapolis Center
Thu 04:47:45 AM 42.8850 -91.5211 83° East 481 554 39,000  Level Minneapolis Center
Thu 04:48:46 AM 42.8992 -91.3428 84° East 473 544 39,000  Level Minneapolis Center
Thu 04:49:46 AM 42.9139 -91.1675 83° East 468 539 39,000  Level Minneapolis Center
Thu 04:50:47 AM 42.9278 -90.9942 84° East 464 534 39,000  Level Minneapolis Center
Thu 04:51:30 AM 42.9397 -90.8578 83° East 459 528 39,000  Level Chicago Center
Thu 04:52:31 AM 42.9539 -90.6869 83° East 457 526 39,000  Level Chicago Center
Thu 04:53:31 AM 42.9669 -90.5178 84° East 453 521 39,000  Level Chicago Center
Thu 04:54:31 AM 42.9806 -90.3489 84° East 453 521 39,000  Level Chicago Center
Thu 04:55:32 AM 42.9928 -90.1772 84° East 458 527 39,000  Level Chicago Center
Thu 04:56:32 AM 43.0050 -90.0008 85° East 469 540 39,000  Level Chicago Center
Thu 04:57:32 AM 43.0183 -89.8192 84° East 471 542 39,000  Level Chicago Center
Thu 04:58:33 AM 43.0300 -89.6414 85° East 472 543 39,000  Level Chicago Center
Thu 04:59:33 AM 43.0428 -89.4625 84° East 474 545 39,000  Level Chicago Center
Thu 05:00:33 AM 43.0550 -89.2825 85° East 477 549 39,000  Level Chicago Center
Thu 05:01:34 AM 43.0661 -89.1025 85° East 477 549 39,000  Level Chicago Center
Thu 05:02:34 AM 43.0775 -88.9228 85° East 478 550 39,000  Level Chicago Center
Thu 05:03:34 AM 43.0892 -88.7419 85° East 480 552 39,000  Level Chicago Center
Thu 05:04:35 AM 43.0994 -88.5622 85° East 479 551 39,000  Level Chicago Center
Thu 05:05:35 AM 43.1103 -88.3822 85° East 480 552 39,000  Level Chicago Center
Thu 05:06:36 AM 43.1200 -88.2006 86° East 482 555 39,000  Level Chicago Center
Thu 05:07:36 AM 43.1242 -88.0206 88° East 478 550 39,000  Level Chicago Center
Thu 05:08:36 AM 43.1292 -87.8397 88° East 479 551 39,000  Level Chicago Center
Thu 05:09:36 AM 43.1350 -87.6578 87° East 478 550 39,000  Level Chicago Center
Thu 05:10:37 AM 43.1406 -87.4744 88° East 482 555 39,000  Level Chicago Center
Thu 05:11:37 AM 43.1450 -87.2883 88° East 483 556 39,000  Level Chicago Center
Thu 05:12:37 AM 43.1511 -87.1036 87° East 485 558 39,000  Level Chicago Center
Thu 05:13:38 AM 43.1536 -86.9194 89° East 486 559 39,000  Level Chicago Center
Thu 05:14:38 AM 43.1581 -86.7325 88° East 491 565 39,000  Level Chicago Center
Thu 05:15:38 AM 43.1614 -86.5447 89° East 494 568 39,000 -496 Level Chicago Center
Thu 05:16:39 AM 43.1653 -86.3556 88° East 494 568 38,000 -942 Descending Chicago Center
Thu 05:17:39 AM 43.1686 -86.1683 89° East 490 564 37,100 -500 Descending Chicago Center
Thu 05:18:39 AM 43.1678 -85.9781 90° East 487 560 37,000 -50 Descending Chicago Center
Thu 05:19:40 AM 43.1500 -85.7897 97° East 487 560 37,000  Level Chicago Center
Thu 05:20:40 AM 43.1347 -85.6036 96° East 487 560 37,000  Level Chicago Center
Thu 05:21:41 AM 43.1192 -85.4189 97° East 488 562 37,000  Level Chicago Center
Thu 05:22:41 AM 43.1033 -85.2356 97° East 486 559 37,000  Level Chicago Center
Thu 05:23:41 AM 43.0878 -85.0514 97° East 488 562 37,000 149 Level Chicago Center
Thu 05:24:42 AM 43.0606 -84.8700 102° East 486 559 37,300 893 Climbing Chicago Center
Thu 05:25:42 AM 43.0250 -84.6994 106° East 471 542 38,800 843 Climbing Chicago Center
Thu 05:26:43 AM 42.9903 -84.5272 105° East 471 542 39,000 99 Climbing Chicago Center
Thu 05:27:43 AM 42.9558 -84.3556 105° East 470 541 39,000  Level Chicago Center
Thu 05:28:02 AM 42.9486 -84.2992 100° East 465 535 39,000  Level Cleveland Center
Thu 05:29:02 AM 42.9269 -84.1222 99° East 459 528 39,000  Level Cleveland Center
Thu 05:30:02 AM 42.9031 -83.9450 100° East 464 534 39,000  Level Cleveland Center
Thu 05:31:02 AM 42.8831 -83.7653 99° East 469 540 39,000  Level Cleveland Center
Thu 05:32:02 AM 42.8606 -83.5969 100° East 469 540 39,000  Level Cleveland Center
Thu 05:33:02 AM 42.8381 -83.4175 100° East 469 540 39,000  Level Cleveland Center
Thu 05:34:02 AM 42.8114 -83.2267 101° East 469 540 39,000  Level Cleveland Center
Thu 05:35:02 AM 42.7881 -83.0475 100° East 469 540 39,000  Level Cleveland Center
Thu 05:36:02 AM 42.7628 -82.8683 101° East 474 545 39,000  Level Cleveland Center
Thu 05:37:02 AM 42.7392 -82.6864 100° East 474 545 39,000  Level Cleveland Center
Thu 05:38:02 AM 42.7131 -82.5047 101° East 474 545 39,000  Level Cleveland Center
Thu 05:39:02 AM 42.6867 -82.3258 101° East 479 551 39,000  Level Cleveland Center
Thu 05:40:02 AM 42.6622 -82.1472 100° East 484 557 39,000 500 Level Cleveland Center
Thu 05:41:02 AM 42.6372 -81.9689 101° East 484 557 40,000 500 Climbing Cleveland Center
Thu 05:42:02 AM 42.6122 -81.7964 101° East 479 551 40,000  Level Cleveland Center
Thu 05:43:02 AM 42.5869 -81.6208 101° East 468 539 40,000  Level Cleveland Center
Thu 05:44:02 AM 42.5611 -81.4428 101° East 468 539 40,000  Level Cleveland Center
Thu 05:45:02 AM 42.5353 -81.2706 101° East 478 550 40,000  Level Cleveland Center
Thu 05:46:02 AM 42.5092 -81.0958 101° East 473 544 40,000  Level Cleveland Center
Thu 05:47:02 AM 42.4825 -80.9211 102° East 468 539 40,000  Level Cleveland Center
Thu 05:48:02 AM 42.4558 -80.7492 102° East 468 539 40,000  Level Cleveland Center
Thu 05:49:02 AM 42.4269 -80.5719 102° East 476 548 40,000  Level Cleveland Center
Thu 05:50:02 AM 42.4017 -80.4172 102° East 470 541 40,000  Level Cleveland Center
Thu 05:51:02 AM 42.3722 -80.2403 103° East 476 548 40,000  Level Cleveland Center
Thu 05:52:02 AM 42.3464 -80.0636 101° East 476 548 40,000  Level Cleveland Center
Thu 05:53:02 AM 42.3164 -79.8897 103° East 476 548 40,000  Level Cleveland Center
Thu 05:54:02 AM 42.2881 -79.7186 103° East 470 541 40,000  Level Cleveland Center
Thu 05:55:02 AM 42.2594 -79.5367 102° East 476 548 40,000  Level Cleveland Center
Thu 05:56:02 AM 42.2308 -79.3661 103° East 481 554 40,000  Level Cleveland Center
Thu 05:57:02 AM 42.2017 -79.1872 102° East 481 554 40,000  Level Cleveland Center
Thu 05:58:02 AM 42.1619 -79.0144 107° East 481 554 40,000  Level Cleveland Center
Thu 05:59:02 AM 42.1178 -78.8419 109° East 481 554 40,000  Level Cleveland Center
Thu 06:00:02 AM 42.0775 -78.6669 107° East 486 559 40,000  Level Cleveland Center
Thu 06:01:02 AM 42.0306 -78.4950 110° East 481 554 40,000  Level Cleveland Center
Thu 06:02:02 AM 41.9858 -78.3233 109° East 481 554 40,000  Level Cleveland Center
Thu 06:04:11 AM 41.8914 -77.9567 109° East 492 566 40,000  Level New York Center
Thu 06:05:11 AM 41.8456 -77.7819 109° East 492 566 40,000  Level New York Center
Thu 06:06:12 AM 41.7992 -77.6128 110° East 492 566 40,000  Level New York Center
Thu 06:07:12 AM 41.7531 -77.4356 109° East 492 566 40,000 -153 Level New York Center
Thu 06:08:10 AM 41.7083 -77.2644 109° East 492 566 39,700 -1,169 Descending New York Center
Thu 06:09:10 AM 41.6614 -77.0906 110° East 497 572 37,700 -1,438 Descending New York Center
Thu 06:10:11 AM 41.6142 -76.9194 110° East 497 572 36,800 -893 Descending New York Center
Thu 06:11:11 AM 41.5669 -76.7433 110° East 497 572 35,900 -1,000 Descending New York Center
Thu 06:12:11 AM 41.5158 -76.5558 110° East 492 566 34,800 -1,008 Descending New York Center
Thu 06:13:10 AM 41.4719 -76.3858 109° East 492 566 33,900 -950 Descending New York Center
Thu 06:14:11 AM 41.4200 -76.2044 111° Southeast 498 573 32,900 -893 Descending New York Center
Thu 06:15:11 AM 41.3767 -76.0544 111° Southeast 498 573 32,100 -893 Descending New York Center
Thu 06:16:12 AM 41.3275 -75.8931 112° Southeast 486 559 31,100 -1,311 Descending New York Center
Thu 06:17:10 AM 41.2806 -75.7239 110° East 479 551 29,500 -2,136 Descending New York Center
Thu 06:18:10 AM 41.2292 -75.5600 113° Southeast 479 551 26,900 -2,600 Descending New York Center
Thu 06:19:10 AM 41.1789 -75.4106 114° Southeast 459 528 24,300 -1,934 Descending New York Center
Thu 06:20:11 AM 41.1283 -75.2611 114° Southeast 449 517 23,000 -655 Descending New York Center
Thu 06:21:09 AM 41.0778 -75.1117 114° Southeast 444 511 23,000  Level New York Center
Thu 06:22:10 AM 41.0231 -74.9486 114° Southeast 444 511 23,000 -50 Level New York Center
Thu 06:23:10 AM 40.9892 -74.7900 106° East 444 511 22,900  Descending New York Center
Thu 06:24:11 AM 40.9694 -74.6267 99° East 444 511 23,000 -595 Climbing New York Center
Thu 06:25:11 AM 40.9517 -74.4636 98° East 444 511 21,700 -1,750 Descending New York Center
Thu 06:25:47 AM 40.9333 -74.3667 104° East 437 503 20,200 -1,688 Descending New York TRACON
Thu 06:26:47 AM 40.9167 -74.2167 98° East 402 463 19,000 -895 Descending New York TRACON
Thu 06:27:41 AM 40.8667 -74.1000 120° Southeast 422 486 18,500 -1,158 Descending New York TRACON
Thu 06:28:41 AM 40.8167 -73.9500 114° Southeast 411 473 16,800 -2,000 Descending New York TRACON
Thu 06:29:35 AM 40.7833 -73.8333 111° Southeast 397 457 14,700 -2,158 Descending New York TRACON
Thu 06:30:35 AM 40.7333 -73.7167 119° Southeast 404 465 12,700 -1,565 Descending New York TRACON
Thu 06:31:30 AM 40.6500 -73.6833 163° South 370 426 11,700 -1,368 Descending New York TRACON
Thu 06:32:29 AM 40.5667 -73.6667 171° South 291 335 10,100 -1,778 Descending New York TRACON
Thu 06:33:18 AM 40.5000 -73.6333 159° South 275 316 8,500 -2,368 Descending New York TRACON
Thu 06:34:23 AM 40.4333 -73.6500 191° South 268 308 5,600 -2,269 Descending New York TRACON
Thu 06:35:17 AM 40.3833 -73.7167 225° Southwest 244 281 4,000 -1,357 Descending New York TRACON
Thu 06:36:18 AM 40.3500 -73.7667 229° Southwest 219 252 3,000 -942 Descending New York TRACON
Thu 06:37:18 AM 40.3833 -73.8333 303° West 241 277 2,100 -750 Descending New York TRACON
Thu 06:38:18 AM 40.4333 -73.8667 333° Northwest 239 275 1,500 -333 Descending New York TRACON
Thu 06:39:06 AM 40.4833 -73.8833 346° North 212 244 1,500  Level New York TRACON
Thu 06:40:06 AM 40.5333 -73.8500 27° Northeast 188 216 1,500  Level New York TRACON

Login

Don't have an account? Register now (free) for customized features, flight alerts, and more!